sensor_id;sensor_type;location;lat;lon;timestamp;pressure;altitude;pressure_sealevel;temperature;humidity
70902;BME280;58548;47.210;8.618;2023-02-11T00:00:27;95938.94;;;4.83;37.15
70902;BME280;58548;47.210;8.618;2023-02-11T00:02:56;95944.72;;;4.87;37.15
70902;BME280;58548;47.210;8.618;2023-02-11T00:05:24;95940.81;;;4.81;37.06
70902;BME280;58548;47.210;8.618;2023-02-11T00:07:52;95944.59;;;4.88;37.78
70902;BME280;58548;47.210;8.618;2023-02-11T00:10:18;95936.84;;;4.88;37.45
70902;BME280;58548;47.210;8.618;2023-02-11T00:12:44;95863.69;;;4.36;37.25
70902;BME280;58548;47.210;8.618;2023-02-11T00:15:10;95915.03;;;4.66;36.75
70902;BME280;58548;47.210;8.618;2023-02-11T00:17:36;95808.09;;;4.04;37.67
70902;BME280;58548;47.210;8.618;2023-02-11T00:20:02;95835.06;;;4.26;36.91
70902;BME280;58548;47.210;8.618;2023-02-11T00:22:28;95908.94;;;4.67;37.26
70902;BME280;58548;47.210;8.618;2023-02-11T00:24:54;95919.69;;;4.87;37.84
70902;BME280;58548;47.210;8.618;2023-02-11T00:27:24;95786.81;;;4.01;37.78
70902;BME280;58548;47.210;8.618;2023-02-11T00:29:53;95840.13;;;4.28;37.60
70902;BME280;58548;47.210;8.618;2023-02-11T00:32:19;95921.75;;;4.82;37.59
70902;BME280;58548;47.210;8.618;2023-02-11T00:34:50;95881.84;;;4.60;37.17
70902;BME280;58548;47.210;8.618;2023-02-11T00:37:20;95783.41;;;4.00;37.04
70902;BME280;58548;47.210;8.618;2023-02-11T00:39:48;95921.97;;;4.79;37.14
70902;BME280;58548;47.210;8.618;2023-02-11T00:42:19;95929.41;;;4.83;38.11
70902;BME280;58548;47.210;8.618;2023-02-11T00:44:45;95935.69;;;4.92;37.22
70902;BME280;58548;47.210;8.618;2023-02-11T00:47:13;95954.66;;;4.93;37.78
70902;BME280;58548;47.210;8.618;2023-02-11T00:49:42;95932.16;;;4.93;37.06
70902;BME280;58548;47.210;8.618;2023-02-11T00:52:08;95934.75;;;4.93;36.69
70902;BME280;58548;47.210;8.618;2023-02-11T00:54:36;95792.59;;;4.04;37.70
70902;BME280;58548;47.210;8.618;2023-02-11T00:57:05;95842.06;;;4.37;37.08
70902;BME280;58548;47.210;8.618;2023-02-11T00:59:31;95864.72;;;4.46;37.13
70902;BME280;58548;47.210;8.618;2023-02-11T01:01:59;95878.88;;;4.53;36.91
70902;BME280;58548;47.210;8.618;2023-02-11T01:04:28;95845.09;;;4.31;36.89
70902;BME280;58548;47.210;8.618;2023-02-11T01:06:54;95893.88;;;4.61;36.66
70902;BME280;58548;47.210;8.618;2023-02-11T01:09:24;95775.06;;;3.84;36.85
70902;BME280;58548;47.210;8.618;2023-02-11T01:11:52;95910.72;;;4.67;37.33
70902;BME280;58548;47.210;8.618;2023-02-11T01:14:18;95924.97;;;4.73;37.46
70902;BME280;58548;47.210;8.618;2023-02-11T01:16:46;95924.25;;;4.71;36.54
70902;BME280;58548;47.210;8.618;2023-02-11T01:19:12;95909.38;;;4.61;37.65
70902;BME280;58548;47.210;8.618;2023-02-11T01:21:40;95911.66;;;4.66;37.12
70902;BME280;58548;47.210;8.618;2023-02-11T01:24:06;95865.97;;;4.41;36.64
70902;BME280;58548;47.210;8.618;2023-02-11T01:26:34;95853.34;;;4.36;37.59
70902;BME280;58548;47.210;8.618;2023-02-11T01:29:02;95854.41;;;4.33;37.38
70902;BME280;58548;47.210;8.618;2023-02-11T01:31:33;95887.84;;;4.61;36.83
70902;BME280;58548;47.210;8.618;2023-02-11T01:34:01;95732.41;;;3.65;37.71
70902;BME280;58548;47.210;8.618;2023-02-11T01:36:27;95817.81;;;4.14;36.98
70902;BME280;58548;47.210;8.618;2023-02-11T01:38:55;95882.78;;;4.59;36.75
70902;BME280;58548;47.210;8.618;2023-02-11T01:41:24;95788.47;;;4.02;36.80
70902;BME280;58548;47.210;8.618;2023-02-11T01:43:50;95759.34;;;3.87;37.86
70902;BME280;58548;47.210;8.618;2023-02-11T01:46:34;95740.34;;;3.75;37.89
70902;BME280;58548;47.210;8.618;2023-02-11T01:49:17;95769.88;;;3.97;37.26
70902;BME280;58548;47.210;8.618;2023-02-11T01:51:59;95874.19;;;4.59;37.67
70902;BME280;58548;47.210;8.618;2023-02-11T01:54:32;95707.00;;;3.59;38.03
70902;BME280;58548;47.210;8.618;2023-02-11T01:57:25;95714.41;;;3.76;36.85
70902;BME280;58548;47.210;8.618;2023-02-11T02:00:07;95859.06;;;4.65;37.33
70902;BME280;58548;47.210;8.618;2023-02-11T02:03:06;95715.72;;;3.82;37.52
70902;BME280;58548;47.210;8.618;2023-02-11T02:08:30;95853.91;;;4.65;37.51
70902;BME280;58548;47.210;8.618;2023-02-11T02:11:04;95711.81;;;3.76;37.81
70902;BME280;58548;47.210;8.618;2023-02-11T02:13:32;95734.94;;;3.91;37.70
70902;BME280;58548;47.210;8.618;2023-02-11T02:16:04;95693.56;;;3.67;38.04
70902;BME280;58548;47.210;8.618;2023-02-11T02:21:52;95851.03;;;4.57;37.25
70902;BME280;58548;47.210;8.618;2023-02-11T02:24:31;95839.00;;;4.56;37.38
70902;BME280;58548;47.210;8.618;2023-02-11T02:35:50;95829.75;;;4.41;36.60
70902;BME280;58548;47.210;8.618;2023-02-11T02:38:43;95820.03;;;4.31;37.83
70902;BME280;58548;47.210;8.618;2023-02-11T02:41:18;95795.06;;;4.19;37.45
70902;BME280;58548;47.210;8.618;2023-02-11T02:43:49;95679.22;;;3.50;38.01
70902;BME280;58548;47.210;8.618;2023-02-11T02:46:19;95798.13;;;4.24;37.00
70902;BME280;58548;47.210;8.618;2023-02-11T02:48:49;95807.66;;;4.23;37.70
70902;BME280;58548;47.210;8.618;2023-02-11T03:05:05;95807.06;;;4.20;37.41
70902;BME280;58548;47.210;8.618;2023-02-11T03:07:51;95810.78;;;4.16;36.68
70902;BME280;58548;47.210;8.618;2023-02-11T03:10:27;95645.81;;;3.09;37.61
70902;BME280;58548;47.210;8.618;2023-02-11T03:12:56;95640.44;;;3.12;37.34
70902;BME280;58548;47.210;8.618;2023-02-11T03:15:29;95798.19;;;4.11;37.89
70902;BME280;58548;47.210;8.618;2023-02-11T03:18:02;95784.34;;;3.99;37.52
70902;BME280;58548;47.210;8.618;2023-02-11T03:20:32;95817.59;;;4.17;37.95
70902;BME280;58548;47.210;8.618;2023-02-11T03:25:48;95833.94;;;4.17;37.55
70902;BME280;58548;47.210;8.618;2023-02-11T03:28:26;95675.13;;;3.21;38.30
70902;BME280;58548;47.210;8.618;2023-02-11T03:31:21;95813.38;;;4.16;37.68
70902;BME280;58548;47.210;8.618;2023-02-11T03:34:05;95624.56;;;2.93;37.73
70902;BME280;58548;47.210;8.618;2023-02-11T03:36:47;95828.03;;;4.15;38.24
70902;BME280;58548;47.210;8.618;2023-02-11T03:39:21;95746.75;;;3.69;37.44
70902;BME280;58548;47.210;8.618;2023-02-11T03:41:55;95819.50;;;4.02;36.99
70902;BME280;58548;47.210;8.618;2023-02-11T03:44:29;95791.91;;;3.89;38.18
70902;BME280;58548;47.210;8.618;2023-02-11T03:47:02;95809.66;;;4.07;37.86
70902;BME280;58548;47.210;8.618;2023-02-11T03:49:32;95819.16;;;4.06;37.75
70902;BME280;58548;47.210;8.618;2023-02-11T03:52:06;95820.81;;;4.07;37.29
70902;BME280;58548;47.210;8.618;2023-02-11T03:54:39;95690.81;;;3.31;36.62
70902;BME280;58548;47.210;8.618;2023-02-11T03:57:09;95635.91;;;3.03;37.69
70902;BME280;58548;47.210;8.618;2023-02-11T03:59:53;95691.84;;;3.28;37.11
70902;BME280;58548;47.210;8.618;2023-02-11T04:02:29;95649.53;;;3.05;37.52
70902;BME280;58548;47.210;8.618;2023-02-11T04:04:56;95791.81;;;3.91;37.28
70902;BME280;58548;47.210;8.618;2023-02-11T04:07:25;95796.97;;;3.91;36.98
70902;BME280;58548;47.210;8.618;2023-02-11T04:09:51;95790.78;;;3.81;37.59
70902;BME280;58548;47.210;8.618;2023-02-11T04:12:17;95765.78;;;3.68;37.84
70902;BME280;58548;47.210;8.618;2023-02-11T04:14:46;95551.72;;;2.24;37.50
70902;BME280;58548;47.210;8.618;2023-02-11T04:17:14;95791.41;;;3.84;37.21
70902;BME280;58548;47.210;8.618;2023-02-11T04:19:40;95795.31;;;3.90;37.60
70902;BME280;58548;47.210;8.618;2023-02-11T04:22:08;95671.63;;;3.09;37.22
70902;BME280;58548;47.210;8.618;2023-02-11T04:24:37;95752.59;;;3.60;37.17
70902;BME280;58548;47.210;8.618;2023-02-11T04:27:05;95777.34;;;3.75;37.15
70902;BME280;58548;47.210;8.618;2023-02-11T04:29:33;95738.94;;;3.58;37.91
70902;BME280;58548;47.210;8.618;2023-02-11T04:32:01;95650.13;;;3.09;37.27
70902;BME280;58548;47.210;8.618;2023-02-11T04:34:27;95780.84;;;3.87;36.69
70902;BME280;58548;47.210;8.618;2023-02-11T04:36:56;95778.47;;;3.84;37.34
70902;BME280;58548;47.210;8.618;2023-02-11T04:39:21;95660.06;;;3.02;37.85
70902;BME280;58548;47.210;8.618;2023-02-11T04:41:47;95711.88;;;3.38;36.90
70902;BME280;58548;47.210;8.618;2023-02-11T04:44:13;95794.31;;;3.80;37.01
70902;BME280;58548;47.210;8.618;2023-02-11T04:46:42;95681.84;;;3.11;37.97
70902;BME280;58548;47.210;8.618;2023-02-11T04:49:12;95790.78;;;3.81;38.04
70902;BME280;58548;47.210;8.618;2023-02-11T04:51:40;95657.69;;;2.99;37.49
70902;BME280;58548;47.210;8.618;2023-02-11T04:54:06;95628.88;;;2.79;37.93
70902;BME280;58548;47.210;8.618;2023-02-11T04:56:32;95686.91;;;3.12;37.50
70902;BME280;58548;47.210;8.618;2023-02-11T04:58:58;95680.50;;;3.05;38.15
70902;BME280;58548;47.210;8.618;2023-02-11T05:01:24;95813.09;;;3.82;37.77
70902;BME280;58548;47.210;8.618;2023-02-11T05:03:50;95799.03;;;3.86;38.23
70902;BME280;58548;47.210;8.618;2023-02-11T05:06:17;95799.25;;;3.83;38.20
70902;BME280;58548;47.210;8.618;2023-02-11T05:08:43;95653.69;;;2.95;38.41
70902;BME280;58548;47.210;8.618;2023-02-11T05:11:18;95776.22;;;3.80;38.28
70902;BME280;58548;47.210;8.618;2023-02-11T05:13:47;95698.25;;;3.36;37.82
70902;BME280;58548;47.210;8.618;2023-02-11T05:16:14;95795.19;;;4.04;38.34
70902;BME280;58548;47.210;8.618;2023-02-11T05:18:42;95779.59;;;3.93;37.26
70902;BME280;58548;47.210;8.618;2023-02-11T05:21:13;95777.75;;;3.95;37.55
70902;BME280;58548;47.210;8.618;2023-02-11T05:23:43;95771.13;;;3.91;37.10
70902;BME280;58548;47.210;8.618;2023-02-11T05:26:12;95762.84;;;3.86;38.12
70902;BME280;58548;47.210;8.618;2023-02-11T05:28:47;95785.16;;;4.00;37.63
70902;BME280;58548;47.210;8.618;2023-02-11T05:31:15;95786.00;;;4.00;37.57
70902;BME280;58548;47.210;8.618;2023-02-11T05:33:42;95789.41;;;4.01;37.13
70902;BME280;58548;47.210;8.618;2023-02-11T05:36:11;95778.16;;;3.89;37.41
70902;BME280;58548;47.210;8.618;2023-02-11T05:38:37;95799.00;;;4.12;36.95
70902;BME280;58548;47.210;8.618;2023-02-11T05:41:04;95784.13;;;4.02;37.27
70902;BME280;58548;47.210;8.618;2023-02-11T05:43:33;95677.59;;;3.36;37.58
70902;BME280;58548;47.210;8.618;2023-02-11T05:46:03;95678.63;;;3.33;37.15
70902;BME280;58548;47.210;8.618;2023-02-11T05:48:31;95806.63;;;4.13;37.81
70902;BME280;58548;47.210;8.618;2023-02-11T05:51:04;95813.25;;;4.17;37.12
70902;BME280;58548;47.210;8.618;2023-02-11T05:53:33;95817.59;;;4.17;37.07
70902;BME280;58548;47.210;8.618;2023-02-11T05:56:01;95818.34;;;4.19;37.23
70902;BME280;58548;47.210;8.618;2023-02-11T05:58:27;95834.78;;;4.18;37.05
70902;BME280;58548;47.210;8.618;2023-02-11T06:00:59;95831.06;;;4.22;37.92
70902;BME280;58548;47.210;8.618;2023-02-11T06:03:29;95831.97;;;4.21;38.11
70902;BME280;58548;47.210;8.618;2023-02-11T06:05:55;95831.25;;;4.19;38.13
70902;BME280;58548;47.210;8.618;2023-02-11T06:08:21;95856.06;;;4.21;38.02
70902;BME280;58548;47.210;8.618;2023-02-11T06:10:50;95685.66;;;3.31;37.88
70902;BME280;58548;47.210;8.618;2023-02-11T06:13:16;95712.28;;;3.44;38.43
70902;BME280;58548;47.210;8.618;2023-02-11T06:15:43;95800.06;;;3.96;38.06
70902;BME280;58548;47.210;8.618;2023-02-11T06:18:09;95752.66;;;3.71;38.60
70902;BME280;58548;47.210;8.618;2023-02-11T06:20:35;95693.91;;;3.36;37.78
70902;BME280;58548;47.210;8.618;2023-02-11T06:23:04;95847.78;;;4.29;37.49
70902;BME280;58548;47.210;8.618;2023-02-11T06:25:29;95823.28;;;4.22;37.29
70902;BME280;58548;47.210;8.618;2023-02-11T06:27:58;95823.78;;;4.27;37.15
70902;BME280;58548;47.210;8.618;2023-02-11T06:30:26;95758.19;;;3.91;37.80
70902;BME280;58548;47.210;8.618;2023-02-11T06:32:54;95831.97;;;4.34;37.77
70902;BME280;58548;47.210;8.618;2023-02-11T06:35:23;95811.00;;;4.13;37.64
70902;BME280;58548;47.210;8.618;2023-02-11T06:37:54;95709.81;;;3.56;37.14
70902;BME280;58548;47.210;8.618;2023-02-11T06:40:20;95698.63;;;3.42;37.76
70902;BME280;58548;47.210;8.618;2023-02-11T06:42:48;95819.69;;;4.12;37.90
70902;BME280;58548;47.210;8.618;2023-02-11T06:45:14;95832.06;;;4.19;37.00
70902;BME280;58548;47.210;8.618;2023-02-11T06:47:40;95839.28;;;4.27;37.58
70902;BME280;58548;47.210;8.618;2023-02-11T06:50:08;95842.59;;;4.29;37.79
70902;BME280;58548;47.210;8.618;2023-02-11T06:52:38;95823.59;;;4.17;37.34
70902;BME280;58548;47.210;8.618;2023-02-11T06:55:04;95838.56;;;4.25;37.57
70902;BME280;58548;47.210;8.618;2023-02-11T06:57:30;95609.91;;;2.80;37.89
70902;BME280;58548;47.210;8.618;2023-02-11T06:59:59;95821.34;;;4.13;37.25
70902;BME280;58548;47.210;8.618;2023-02-11T07:02:27;95856.44;;;4.41;38.02
70902;BME280;58548;47.210;8.618;2023-02-11T07:04:53;95858.69;;;4.46;37.22
70902;BME280;58548;47.210;8.618;2023-02-11T07:07:19;95775.88;;;3.97;37.74
70902;BME280;58548;47.210;8.618;2023-02-11T07:09:47;95733.94;;;3.81;37.40
70902;BME280;58548;47.210;8.618;2023-02-11T07:12:13;95860.69;;;4.66;38.14
70902;BME280;58548;47.210;8.618;2023-02-11T07:14:42;95703.34;;;3.74;37.70
70902;BME280;58548;47.210;8.618;2023-02-11T07:17:13;95854.44;;;4.82;36.98
70902;BME280;58548;47.210;8.618;2023-02-11T07:19:38;95848.00;;;4.88;37.16
70902;BME280;58548;47.210;8.618;2023-02-11T07:22:04;95853.50;;;5.07;37.79
70902;BME280;58548;47.210;8.618;2023-02-11T07:24:30;95690.53;;;4.46;38.10
70902;BME280;58548;47.210;8.618;2023-02-11T07:26:56;95722.94;;;5.10;38.37
70902;BME280;58548;47.210;8.618;2023-02-11T07:29:22;95846.75;;;6.44;37.69
70902;BME280;58548;47.210;8.618;2023-02-11T07:31:48;95849.97;;;7.13;37.11
70902;BME280;58548;47.210;8.618;2023-02-11T07:34:14;95852.72;;;7.96;36.52
70902;BME280;58548;47.210;8.618;2023-02-11T07:36:43;95724.53;;;7.94;35.30
70902;BME280;58548;47.210;8.618;2023-02-11T07:39:12;95854.78;;;9.63;33.64
70902;BME280;58548;47.210;8.618;2023-02-11T07:41:38;95815.75;;;10.19;32.74
70902;BME280;58548;47.210;8.618;2023-02-11T07:44:06;95858.50;;;11.01;31.17
70902;BME280;58548;47.210;8.618;2023-02-11T07:46:34;95832.66;;;11.35;30.49
70902;BME280;58548;47.210;8.618;2023-02-11T07:49:05;95826.66;;;11.87;29.73
70902;BME280;58548;47.210;8.618;2023-02-11T07:51:33;95793.84;;;12.35;29.53
70902;BME280;58548;47.210;8.618;2023-02-11T07:53:59;95696.47;;;12.48;28.90
70902;BME280;58548;47.210;8.618;2023-02-11T07:56:28;95793.31;;;13.91;28.40
70902;BME280;58548;47.210;8.618;2023-02-11T07:58:58;95809.28;;;14.77;26.83
70902;BME280;58548;47.210;8.618;2023-02-11T08:01:25;95705.81;;;14.61;25.94
70902;BME280;58548;47.210;8.618;2023-02-11T08:03:54;95718.19;;;14.99;24.74
70902;BME280;58548;47.210;8.618;2023-02-11T08:06:26;95818.56;;;15.96;24.46
70902;BME280;58548;47.210;8.618;2023-02-11T08:08:53;95806.13;;;16.35;24.09
70902;BME280;58548;47.210;8.618;2023-02-11T08:11:27;95819.69;;;17.20;23.66
70902;BME280;58548;47.210;8.618;2023-02-11T08:13:54;95726.00;;;17.38;22.89
70902;BME280;58548;47.210;8.618;2023-02-11T08:16:30;95821.56;;;18.75;22.17
70902;BME280;58548;47.210;8.618;2023-02-11T08:19:03;95807.28;;;19.32;20.93
70902;BME280;58548;47.210;8.618;2023-02-11T08:21:29;95824.59;;;20.15;20.02
70902;BME280;58548;47.210;8.618;2023-02-11T08:23:56;95798.81;;;20.49;19.41
70902;BME280;58548;47.210;8.618;2023-02-11T08:26:30;95831.94;;;21.31;18.45
70902;BME280;58548;47.210;8.618;2023-02-11T08:29:06;95822.91;;;21.71;17.23
70902;BME280;58548;47.210;8.618;2023-02-11T08:31:35;95834.81;;;22.12;17.00
70902;BME280;58548;47.210;8.618;2023-02-11T08:34:04;95747.22;;;22.10;17.28
70902;BME280;58548;47.210;8.618;2023-02-11T08:36:34;95731.16;;;22.73;16.37
70902;BME280;58548;47.210;8.618;2023-02-11T08:39:03;95651.97;;;22.80;16.06
70902;BME280;58548;47.210;8.618;2023-02-11T08:41:33;95801.78;;;24.27;15.12
70902;BME280;58548;47.210;8.618;2023-02-11T08:44:02;95791.59;;;24.64;14.39
70902;BME280;58548;47.210;8.618;2023-02-11T08:46:30;95810.91;;;25.24;14.15
70902;BME280;58548;47.210;8.618;2023-02-11T08:48:56;95786.59;;;25.55;14.00
70902;BME280;58548;47.210;8.618;2023-02-11T08:51:25;95802.16;;;25.92;12.98
70902;BME280;58548;47.210;8.618;2023-02-11T08:53:58;95739.88;;;25.80;12.74
70902;BME280;58548;47.210;8.618;2023-02-11T08:56:26;95786.00;;;26.21;12.87
70902;BME280;58548;47.210;8.618;2023-02-11T08:58:52;95793.44;;;26.58;12.66
70902;BME280;58548;47.210;8.618;2023-02-11T09:01:22;95781.22;;;26.90;12.43
70902;BME280;58548;47.210;8.618;2023-02-11T09:03:48;95758.34;;;27.09;12.08
70902;BME280;58548;47.210;8.618;2023-02-11T09:06:15;95725.97;;;27.16;12.32
70902;BME280;58548;47.210;8.618;2023-02-11T09:08:46;95765.00;;;27.62;11.18
70902;BME280;58548;47.210;8.618;2023-02-11T09:11:17;95673.13;;;27.12;10.99
70902;BME280;58548;47.210;8.618;2023-02-11T09:13:46;95663.69;;;26.76;11.70
70902;BME280;58548;47.210;8.618;2023-02-11T09:16:19;95705.63;;;26.66;12.29
70902;BME280;58548;47.210;8.618;2023-02-11T09:18:46;95756.97;;;26.57;11.69
70902;BME280;58548;47.210;8.618;2023-02-11T09:21:18;95679.59;;;25.55;12.04
70902;BME280;58548;47.210;8.618;2023-02-11T09:23:46;95776.47;;;25.57;12.11
70902;BME280;58548;47.210;8.618;2023-02-11T09:26:19;95752.91;;;24.67;12.70
70902;BME280;58548;47.210;8.618;2023-02-11T09:28:47;95794.34;;;24.29;12.65
70902;BME280;58548;47.210;8.618;2023-02-11T09:31:16;95802.47;;;23.86;13.18
70902;BME280;58548;47.210;8.618;2023-02-11T09:33:50;95818.78;;;23.66;13.94
70902;BME280;58548;47.210;8.618;2023-02-11T09:36:19;95826.84;;;23.17;14.91
70902;BME280;58548;47.210;8.618;2023-02-11T09:38:49;95791.16;;;22.57;15.64
70902;BME280;58548;47.210;8.618;2023-02-11T09:43:59;95650.38;;;20.86;16.38
70902;BME280;58548;47.210;8.618;2023-02-11T09:46:33;95725.34;;;21.14;16.54
70902;BME280;58548;47.210;8.618;2023-02-11T09:49:02;95704.81;;;21.28;17.04
70902;BME280;58548;47.210;8.618;2023-02-11T09:51:43;95812.31;;;22.52;16.49
70902;BME280;58548;47.210;8.618;2023-02-11T09:54:36;95730.66;;;22.64;16.16
70902;BME280;58548;47.210;8.618;2023-02-11T09:57:08;95809.22;;;24.01;15.58
70902;BME280;58548;47.210;8.618;2023-02-11T09:59:39;95799.25;;;24.61;14.99
70902;BME280;58548;47.210;8.618;2023-02-11T10:02:23;95822.22;;;25.43;14.57
70902;BME280;58548;47.210;8.618;2023-02-11T10:07:51;95822.81;;;26.53;13.41
70902;BME280;58548;47.210;8.618;2023-02-11T10:10:46;95817.28;;;27.04;13.27
70902;BME280;58548;47.210;8.618;2023-02-11T10:21:14;95832.75;;;28.60;11.71
70902;BME280;58548;47.210;8.618;2023-02-11T10:23:51;95742.13;;;27.92;11.59
70902;BME280;58548;47.210;8.618;2023-02-11T10:26:22;95838.34;;;28.43;11.56
70902;BME280;58548;47.210;8.618;2023-02-11T10:28:59;95844.34;;;28.61;11.51
70902;BME280;58548;47.210;8.618;2023-02-11T10:31:36;95844.44;;;28.81;10.72
70902;BME280;58548;47.210;8.618;2023-02-11T10:34:05;95836.66;;;28.85;11.08
70902;BME280;58548;47.210;8.618;2023-02-11T10:36:35;95841.25;;;28.84;10.57
70902;BME280;58548;47.210;8.618;2023-02-11T10:41:41;95729.25;;;28.42;10.39
70902;BME280;58548;47.210;8.618;2023-02-11T10:44:21;95818.94;;;28.89;9.78
70902;BME280;58548;47.210;8.618;2023-02-11T10:46:49;95811.63;;;28.26;9.79
70902;BME280;58548;47.210;8.618;2023-02-11T10:55:04;95792.78;;;26.29;10.53
70902;BME280;58548;47.210;8.618;2023-02-11T10:57:37;95816.16;;;25.19;11.92
70902;BME280;58548;47.210;8.618;2023-02-11T11:02:43;95699.09;;;23.22;12.83
70902;BME280;58548;47.210;8.618;2023-02-11T11:05:17;95740.63;;;22.99;13.24
70902;BME280;58548;47.210;8.618;2023-02-11T11:07:55;95793.06;;;22.87;13.51
70902;BME280;58548;47.210;8.618;2023-02-11T11:13:27;95793.72;;;22.26;13.62
70902;BME280;58548;47.210;8.618;2023-02-11T11:18:41;95782.56;;;21.74;14.95
70902;BME280;58548;47.210;8.618;2023-02-11T11:24:04;95774.53;;;21.80;14.24
70902;BME280;58548;47.210;8.618;2023-02-11T11:26:49;95795.03;;;21.98;14.28
70902;BME280;58548;47.210;8.618;2023-02-11T11:29:23;95781.06;;;22.03;13.75
70902;BME280;58548;47.210;8.618;2023-02-11T11:34:40;95664.59;;;21.68;14.20
70902;BME280;58548;47.210;8.618;2023-02-11T11:37:23;95780.88;;;22.91;14.05
70902;BME280;58548;47.210;8.618;2023-02-11T11:40:19;95772.28;;;23.50;13.91
70902;BME280;58548;47.210;8.618;2023-02-11T11:45:33;95676.97;;;23.81;13.10
70902;BME280;58548;47.210;8.618;2023-02-11T11:53:42;95728.47;;;24.87;12.96
70902;BME280;58548;47.210;8.618;2023-02-11T11:56:18;95666.69;;;24.83;11.90
70902;BME280;58548;47.210;8.618;2023-02-11T11:58:45;95779.53;;;25.83;11.58
70902;BME280;58548;47.210;8.618;2023-02-11T12:07:10;95769.19;;;27.47;11.24
70902;BME280;58548;47.210;8.618;2023-02-11T12:21:27;95777.03;;;27.97;10.80
70902;BME280;58548;47.210;8.618;2023-02-11T12:26:52;95774.25;;;27.81;10.84
70902;BME280;58548;47.210;8.618;2023-02-11T12:38:11;95766.84;;;29.21;9.92
70902;BME280;58548;47.210;8.618;2023-02-11T12:47:11;95756.63;;;30.01;9.76
70902;BME280;58548;47.210;8.618;2023-02-11T12:50:03;95661.38;;;29.60;9.76
70902;BME280;58548;47.210;8.618;2023-02-11T12:55:21;95648.91;;;29.90;9.51
70902;BME280;58548;47.210;8.618;2023-02-11T12:57:51;95728.19;;;30.45;9.17
70902;BME280;58548;47.210;8.618;2023-02-11T13:03:33;95647.19;;;30.20;8.83
70902;BME280;58548;47.210;8.618;2023-02-11T13:06:10;95668.09;;;30.44;9.06
70902;BME280;58548;47.210;8.618;2023-02-11T13:08:47;95731.13;;;31.04;8.83
70902;BME280;58548;47.210;8.618;2023-02-11T13:11:25;95732.91;;;31.24;8.89
70902;BME280;58548;47.210;8.618;2023-02-11T13:14:09;95736.06;;;31.36;8.70
70902;BME280;58548;47.210;8.618;2023-02-11T13:16:49;95672.50;;;31.20;7.90
70902;BME280;58548;47.210;8.618;2023-02-11T13:19:33;95666.69;;;31.37;7.60
70902;BME280;58548;47.210;8.618;2023-02-11T13:24:46;95722.75;;;31.80;7.86
70902;BME280;58548;47.210;8.618;2023-02-11T13:30:19;95717.34;;;31.80;8.07
70902;BME280;58548;47.210;8.618;2023-02-11T13:35:36;95636.09;;;31.17;8.13
70902;BME280;58548;47.210;8.618;2023-02-11T13:40:42;95725.41;;;31.50;8.00
70902;BME280;58548;47.210;8.618;2023-02-11T13:43:29;95710.34;;;31.09;7.99
70902;BME280;58548;47.210;8.618;2023-02-11T13:46:04;95621.16;;;29.95;8.18
70902;BME280;58548;47.210;8.618;2023-02-11T13:51:13;95624.81;;;28.77;8.41
70902;BME280;58548;47.210;8.618;2023-02-11T13:58:56;95610.28;;;27.40;10.24
70902;BME280;58548;47.210;8.618;2023-02-11T14:04:34;95639.38;;;26.33;11.53
70902;BME280;58548;47.210;8.618;2023-02-11T14:07:29;95729.44;;;26.40;11.73
70902;BME280;58548;47.210;8.618;2023-02-11T14:13:22;95611.38;;;25.01;12.06
70902;BME280;58548;47.210;8.618;2023-02-11T14:16:25;95708.75;;;25.56;12.07
70902;BME280;58548;47.210;8.618;2023-02-11T14:21:36;95705.00;;;25.52;11.89
70902;BME280;58548;47.210;8.618;2023-02-11T14:26:44;95712.94;;;25.47;12.37
70902;BME280;58548;47.210;8.618;2023-02-11T14:32:01;95708.50;;;25.41;12.02
70902;BME280;58548;47.210;8.618;2023-02-11T14:37:33;95566.09;;;23.85;11.94
70902;BME280;58548;47.210;8.618;2023-02-11T14:42:41;95576.81;;;23.14;12.61
70902;BME280;58548;47.210;8.618;2023-02-11T14:45:10;95586.69;;;23.01;12.78
70902;BME280;58548;47.210;8.618;2023-02-11T14:47:50;95710.13;;;23.61;12.55
70902;BME280;58548;47.210;8.618;2023-02-11T14:50:31;95510.06;;;22.37;12.95
70902;BME280;58548;47.210;8.618;2023-02-11T14:53:02;95704.94;;;23.67;12.95
70902;BME280;58548;47.210;8.618;2023-02-11T14:55:34;95688.22;;;23.59;12.97
70902;BME280;58548;47.210;8.618;2023-02-11T14:58:19;95710.97;;;23.62;12.88
70902;BME280;58548;47.210;8.618;2023-02-11T15:00:51;95691.59;;;23.43;13.00
70902;BME280;58548;47.210;8.618;2023-02-11T15:08:51;95664.66;;;23.09;13.04
70902;BME280;58548;47.210;8.618;2023-02-11T15:11:21;95621.50;;;22.64;12.52
70902;BME280;58548;47.210;8.618;2023-02-11T15:13:51;95613.91;;;22.19;12.97
70902;BME280;58548;47.210;8.618;2023-02-11T15:16:24;95625.56;;;21.87;13.00
70902;BME280;58548;47.210;8.618;2023-02-11T15:18:54;95707.66;;;22.14;13.62
70902;BME280;58548;47.210;8.618;2023-02-11T15:21:26;95661.50;;;21.71;13.93
70902;BME280;58548;47.210;8.618;2023-02-11T15:26:24;95713.00;;;21.51;14.82
70902;BME280;58548;47.210;8.618;2023-02-11T15:28:50;95626.59;;;20.66;14.98
70902;BME280;58548;47.210;8.618;2023-02-11T15:31:23;95696.94;;;20.89;15.60
70902;BME280;58548;47.210;8.618;2023-02-11T15:33:53;95724.09;;;20.91;15.37
70902;BME280;58548;47.210;8.618;2023-02-11T15:36:23;95724.41;;;20.76;15.81
70902;BME280;58548;47.210;8.618;2023-02-11T15:39:26;95710.56;;;20.60;16.02
70902;BME280;58548;47.210;8.618;2023-02-11T15:41:56;95715.34;;;20.45;15.62
70902;BME280;58548;47.210;8.618;2023-02-11T15:44:45;95627.84;;;19.72;15.98
70902;BME280;58548;47.210;8.618;2023-02-11T15:47:21;95714.25;;;20.07;16.29
70902;BME280;58548;47.210;8.618;2023-02-11T15:49:49;95680.47;;;19.76;16.54
70902;BME280;58548;47.210;8.618;2023-02-11T15:52:24;95642.44;;;19.29;16.58
70902;BME280;58548;47.210;8.618;2023-02-11T15:54:53;95697.44;;;19.48;16.53
70902;BME280;58548;47.210;8.618;2023-02-11T15:57:21;95693.78;;;19.28;16.80
70902;BME280;58548;47.210;8.618;2023-02-11T15:59:52;95608.19;;;18.47;17.47
70902;BME280;58548;47.210;8.618;2023-02-11T16:02:33;95601.03;;;18.14;17.22
70902;BME280;58548;47.210;8.618;2023-02-11T16:05:05;95700.16;;;18.45;17.64
70902;BME280;58548;47.210;8.618;2023-02-11T16:07:45;95709.22;;;18.22;17.82
70902;BME280;58548;47.210;8.618;2023-02-11T16:10:32;95686.22;;;17.74;18.56
70902;BME280;58548;47.210;8.618;2023-02-11T16:13:17;95635.47;;;17.15;18.47